createdAt,value
2023-03-05T00:01:28.012Z,40.50
2023-03-05T00:04:15.464Z,44.45
2023-03-05T00:07:01.228Z,40.53
2023-03-05T00:09:46.477Z,42.13
2023-03-05T00:12:32.178Z,38.05
2023-03-05T00:15:18.005Z,44.65
2023-03-05T00:18:03.819Z,40.55
2023-03-05T00:20:49.722Z,41.97
2023-03-05T00:23:35.244Z,40.80
2023-03-05T00:26:23.111Z,40.75
2023-03-05T00:29:09.408Z,42.30
2023-03-05T00:31:56.029Z,45.42
2023-03-05T00:34:41.595Z,37.88
2023-03-05T00:37:27.352Z,41.30
2023-03-05T00:40:13.468Z,39.25
2023-03-05T00:42:59.004Z,47.60
2023-03-05T00:45:44.662Z,43.03
2023-03-05T00:48:31.121Z,42.75
2023-03-05T00:51:16.469Z,40.72
2023-03-05T00:54:02.325Z,43.40
2023-03-05T00:56:49.135Z,39.60
2023-03-05T00:59:34.630Z,40.58
2023-03-05T01:02:20.256Z,37.10
2023-03-05T01:05:06.268Z,39.65
2023-03-05T01:07:55.899Z,38.05
2023-03-05T01:13:27.519Z,37.08
2023-03-05T01:16:13.337Z,42.25
2023-03-05T01:18:58.926Z,40.78
2023-03-05T01:21:44.473Z,43.83
2023-03-05T01:24:31.414Z,45.75
2023-03-05T01:27:16.768Z,43.03
2023-03-05T01:30:02.482Z,41.40
2023-03-05T01:32:48.092Z,39.33
2023-03-05T01:35:33.581Z,41.33
2023-03-05T01:38:19.100Z,37.58
2023-03-05T01:41:04.837Z,38.03
2023-03-05T01:43:53.152Z,38.05
2023-03-05T01:46:39.141Z,42.80
2023-03-05T01:49:35.448Z,42.42
2023-03-05T01:52:23.116Z,43.72
2023-03-05T01:55:13.882Z,38.97
2023-03-05T01:58:08.017Z,41.05
2023-03-05T02:00:55.492Z,42.25
2023-03-05T02:03:42.362Z,39.63
2023-03-05T02:06:28.908Z,38.83
2023-03-05T02:09:14.796Z,39.58
2023-03-05T02:12:00.646Z,38.53
2023-03-05T02:14:50.275Z,36.95
2023-03-05T02:17:36.296Z,38.47
2023-03-05T02:20:24.825Z,40.72
2023-03-05T02:23:10.858Z,39.72
2023-03-05T02:25:56.881Z,36.22
2023-03-05T02:28:49.328Z,40.22
2023-03-05T02:31:34.578Z,39.33
2023-03-05T02:34:20.057Z,41.38
2023-03-05T02:37:09.117Z,36.67
2023-03-05T02:39:55.641Z,36.42
2023-03-05T02:42:42.424Z,34.67
2023-03-05T02:45:29.684Z,38.08
2023-03-05T02:48:15.222Z,35.42
2023-03-05T02:51:03.412Z,38.20
2023-03-05T02:53:49.097Z,36.45
2023-03-05T02:56:35.826Z,39.15
2023-03-05T02:59:21.365Z,37.83
2023-03-05T03:02:06.892Z,38.03
2023-03-05T03:04:52.438Z,34.75
2023-03-05T03:07:38.243Z,36.40
2023-03-05T03:10:24.279Z,36.75
2023-03-05T03:13:10.049Z,36.45
2023-03-05T03:16:03.489Z,35.92
2023-03-05T03:18:49.229Z,36.83
2023-03-05T03:21:34.735Z,32.60
2023-03-05T03:24:20.575Z,36.53
2023-03-05T03:27:06.005Z,36.78
2023-03-05T03:29:51.807Z,32.97
2023-03-05T03:32:37.475Z,38.90
2023-03-05T03:35:23.004Z,33.97
2023-03-05T03:38:08.511Z,38.83
2023-03-05T03:40:54.038Z,37.20
2023-03-05T03:43:39.526Z,35.05
2023-03-05T03:46:25.277Z,35.38
2023-03-05T03:49:21.851Z,34.90
2023-03-05T03:52:07.876Z,35.90
2023-03-05T03:54:55.773Z,37.40
2023-03-05T03:57:41.277Z,36.67
2023-03-05T04:00:27.200Z,37.10
2023-03-05T04:03:12.591Z,33.33
2023-03-05T04:05:58.403Z,37.78
2023-03-05T04:08:44.014Z,36.88
2023-03-05T04:11:29.546Z,33.40
2023-03-05T04:14:15.049Z,31.70
2023-03-05T04:17:00.757Z,36.95
2023-03-05T04:19:46.369Z,34.35
2023-03-05T04:22:31.955Z,35.00
2023-03-05T04:25:17.761Z,34.00
2023-03-05T04:28:03.525Z,35.42
2023-03-05T04:30:49.132Z,34.33
2023-03-05T04:33:34.633Z,33.92
2023-03-05T04:36:20.070Z,31.20
2023-03-05T04:39:05.667Z,31.25
2023-03-05T04:41:51.210Z,32.42
2023-03-05T04:44:36.787Z,36.92
2023-03-05T04:47:22.655Z,36.70
2023-03-05T04:50:09.022Z,36.85
2023-03-05T04:52:54.892Z,34.13
2023-03-05T04:55:40.733Z,35.50
2023-03-05T04:58:26.121Z,34.90
2023-03-05T05:01:11.711Z,33.72
2023-03-05T05:03:57.148Z,33.50
2023-03-05T05:06:42.668Z,35.88
2023-03-05T05:09:28.170Z,34.55
2023-03-05T05:12:13.691Z,35.67
2023-03-05T05:14:59.276Z,35.47
2023-03-05T05:17:44.879Z,35.13
2023-03-05T05:20:30.242Z,33.47
2023-03-05T05:23:16.798Z,34.22
2023-03-05T05:26:04.482Z,32.47
2023-03-05T05:28:50.258Z,34.38
2023-03-05T05:31:36.052Z,33.08
2023-03-05T05:34:21.526Z,32.63
2023-03-05T05:37:07.064Z,29.88
2023-03-05T05:39:52.950Z,32.67
2023-03-05T05:42:38.429Z,36.25
2023-03-05T05:45:24.192Z,35.08
2023-03-05T05:48:09.998Z,33.42
2023-03-05T05:50:55.834Z,35.70
2023-03-05T05:53:42.989Z,33.28
2023-03-05T05:56:28.450Z,33.72
2023-03-05T05:59:14.220Z,31.20
2023-03-05T06:01:59.809Z,36.28
2023-03-05T06:04:45.643Z,34.65
2023-03-05T06:07:31.673Z,34.28
2023-03-05T06:10:17.772Z,30.55
2023-03-05T06:13:03.047Z,35.08
2023-03-05T06:15:59.702Z,34.70
2023-03-05T06:18:45.770Z,34.88
2023-03-05T06:21:32.459Z,35.40
2023-03-05T06:24:19.350Z,35.70
2023-03-05T06:27:06.083Z,34.40
2023-03-05T06:29:56.679Z,36.63
2023-03-05T06:32:42.199Z,34.22
2023-03-05T06:35:27.773Z,36.30
2023-03-05T06:38:13.203Z,34.03
2023-03-05T06:41:05.856Z,39.60
2023-03-05T06:43:51.892Z,33.75
2023-03-05T06:46:39.945Z,35.70
2023-03-05T06:49:25.658Z,32.50
2023-03-05T06:52:12.782Z,32.83
2023-03-05T06:54:58.317Z,35.20
2023-03-05T06:57:43.690Z,33.42
2023-03-05T07:00:30.707Z,34.75
2023-03-05T07:03:16.181Z,30.48
2023-03-05T07:06:15.835Z,34.05
2023-03-05T07:11:47.983Z,34.85
2023-03-05T07:14:33.232Z,27.83
2023-03-05T07:17:18.748Z,32.45
2023-03-05T07:20:05.938Z,33.65
2023-03-05T07:22:51.505Z,30.65
2023-03-05T07:25:38.963Z,28.33
2023-03-05T07:28:24.770Z,28.27
2023-03-05T07:31:22.248Z,28.30
2023-03-05T07:34:07.861Z,32.33
2023-03-05T07:36:53.605Z,28.40
2023-03-05T07:39:39.078Z,28.88
2023-03-05T07:42:24.964Z,28.13
2023-03-05T07:45:22.680Z,26.33
2023-03-05T07:48:12.185Z,32.97
2023-03-05T07:51:03.043Z,28.02
2023-03-05T07:53:50.759Z,26.33
2023-03-05T07:56:36.222Z,29.55
2023-03-05T07:59:21.992Z,31.05
2023-03-05T08:02:07.868Z,32.53
2023-03-05T08:04:53.287Z,32.05
2023-03-05T08:07:38.896Z,28.25
2023-03-05T08:10:24.473Z,29.58
2023-03-05T08:13:10.491Z,26.13
2023-03-05T08:15:56.254Z,31.50
2023-03-05T08:18:42.035Z,28.83
2023-03-05T08:21:30.525Z,29.98
2023-03-05T08:24:16.393Z,27.40
2023-03-05T08:27:01.822Z,29.60
2023-03-05T08:29:47.361Z,27.90
2023-03-05T08:32:33.130Z,25.63
2023-03-05T08:35:18.869Z,30.50
2023-03-05T08:38:05.257Z,29.35
2023-03-05T08:40:50.516Z,26.50
2023-03-05T08:43:36.815Z,28.88
2023-03-05T08:46:22.832Z,29.33
2023-03-05T08:49:08.603Z,30.02
2023-03-05T08:51:54.377Z,29.63
2023-03-05T08:54:39.958Z,27.90
2023-03-05T08:57:25.488Z,30.98
2023-03-05T09:00:12.697Z,31.48
2023-03-05T09:02:58.279Z,29.95
2023-03-05T09:05:43.820Z,33.28
2023-03-05T09:08:30.252Z,31.60
2023-03-05T09:11:16.143Z,32.47
2023-03-05T09:14:06.558Z,32.42
2023-03-05T09:16:51.946Z,31.42
2023-03-05T09:19:37.668Z,31.92
2023-03-05T09:22:23.295Z,34.17
2023-03-05T09:25:11.630Z,32.50
2023-03-05T09:27:57.340Z,37.15
2023-03-05T09:30:42.884Z,32.22
2023-03-05T09:33:28.244Z,30.63
2023-03-05T09:36:20.001Z,31.48
2023-03-05T09:39:07.017Z,35.20
2023-03-05T09:42:10.263Z,34.65
2023-03-05T09:45:16.383Z,34.15
2023-03-05T09:48:22.722Z,28.30
2023-03-05T09:51:16.443Z,32.45
2023-03-05T09:54:11.114Z,36.55
2023-03-05T09:57:01.621Z,32.67
2023-03-05T10:02:44.802Z,36.53
2023-03-05T10:05:51.466Z,43.17
2023-03-05T10:08:49.076Z,37.95
2023-03-05T10:11:44.960Z,39.00
2023-03-05T10:14:38.121Z,37.42
2023-03-05T10:17:39.893Z,34.58
2023-03-05T10:20:38.817Z,39.00
2023-03-05T10:23:29.703Z,37.38
2023-03-05T10:26:32.172Z,36.67
2023-03-05T10:29:32.863Z,36.63
2023-03-05T10:32:45.043Z,34.53
2023-03-05T10:35:40.757Z,38.72
2023-03-05T10:38:50.821Z,40.03
2023-03-05T10:42:20.553Z,41.53
2023-03-05T10:45:26.025Z,35.63
2023-03-05T10:48:48.889Z,37.10
2023-03-05T10:52:09.715Z,38.08
2023-03-05T10:54:55.341Z,35.08
2023-03-05T10:57:41.140Z,36.80
2023-03-05T11:00:28.091Z,38.20
2023-03-05T11:03:14.046Z,37.97
2023-03-05T11:06:02.303Z,39.83
2023-03-05T11:08:48.434Z,37.83
2023-03-05T11:11:34.271Z,38.80
2023-03-05T11:14:31.302Z,39.03
2023-03-05T11:17:24.482Z,39.63
2023-03-05T11:20:31.480Z,40.10
2023-03-05T11:23:17.338Z,40.40
2023-03-05T11:26:13.654Z,34.45
2023-03-05T11:29:03.189Z,38.08
2023-03-05T11:31:49.365Z,39.37
2023-03-05T11:34:35.909Z,34.95
2023-03-05T11:37:30.314Z,38.78
2023-03-05T11:40:25.140Z,37.88
2023-03-05T11:43:17.061Z,40.60
2023-03-05T11:46:04.916Z,35.88
2023-03-05T11:48:50.618Z,36.70
2023-03-05T11:51:58.362Z,33.45
2023-03-05T11:55:14.728Z,35.05
2023-03-05T11:58:22.320Z,33.08
2023-03-05T12:01:51.227Z,34.67
2023-03-05T12:04:37.720Z,31.08
2023-03-05T12:07:40.053Z,32.00
2023-03-05T12:10:26.262Z,33.45
2023-03-05T12:13:38.838Z,28.85
2023-03-05T12:16:28.706Z,35.63
2023-03-05T12:19:20.104Z,31.88
2023-03-05T12:22:21.989Z,30.33
2023-03-05T12:25:26.333Z,30.63
2023-03-05T12:28:17.350Z,31.35
2023-03-05T12:31:06.736Z,33.47
2023-03-05T12:33:52.283Z,32.65
2023-03-05T12:36:39.802Z,27.88
2023-03-05T12:40:00.883Z,30.02
2023-03-05T12:42:48.423Z,32.00
2023-03-05T12:45:42.375Z,33.22
2023-03-05T12:48:27.924Z,30.70
2023-03-05T12:51:17.871Z,29.83
2023-03-05T12:54:34.507Z,24.58
2023-03-05T12:57:24.199Z,28.50
2023-03-05T13:00:22.311Z,29.10
2023-03-05T13:03:18.015Z,27.85
2023-03-05T13:06:06.632Z,26.30
2023-03-05T13:09:00.901Z,27.13
2023-03-05T13:11:49.764Z,27.38
2023-03-05T13:14:47.041Z,27.35
2023-03-05T13:17:52.069Z,26.13
2023-03-05T13:20:42.678Z,26.67
2023-03-05T13:23:29.369Z,25.70
2023-03-05T13:26:18.439Z,25.05
2023-03-05T13:29:09.843Z,19.98
2023-03-05T13:32:02.209Z,23.48
2023-03-05T13:34:48.266Z,22.23
2023-03-05T13:37:38.103Z,24.38
2023-03-05T13:40:29.495Z,22.38
2023-03-05T13:43:20.608Z,21.17
2023-03-05T13:46:06.276Z,19.85
2023-03-05T13:48:51.842Z,18.88
2023-03-05T13:51:59.236Z,19.58
2023-03-05T13:54:44.780Z,17.38
2023-03-05T13:57:45.093Z,15.55
2023-03-05T14:00:38.822Z,11.15
2023-03-05T14:03:28.175Z,10.48
2023-03-05T14:06:19.214Z,11.00
2023-03-05T14:09:25.629Z,9.63
2023-03-05T14:12:38.482Z,11.23
2023-03-05T14:15:30.378Z,10.65
2023-03-05T14:18:19.280Z,9.48
2023-03-05T14:21:13.044Z,12.25
2023-03-05T14:24:13.224Z,12.55
2023-03-05T14:27:05.539Z,10.30
2023-03-05T14:29:51.605Z,10.57
2023-03-05T14:32:37.792Z,10.98
2023-03-05T14:35:26.371Z,8.00
2023-03-05T14:38:22.016Z,8.55
2023-03-05T14:41:21.130Z,7.38
2023-03-05T14:44:16.107Z,10.63
2023-03-05T14:47:02.059Z,7.82
2023-03-05T14:49:47.588Z,8.98
2023-03-05T14:52:34.026Z,8.88
2023-03-05T14:55:22.942Z,8.57
2023-03-05T14:58:14.628Z,8.23
2023-03-05T15:01:00.357Z,7.60
2023-03-05T15:03:45.888Z,9.25
2023-03-05T15:06:36.169Z,9.00
2023-03-05T15:09:22.504Z,8.60
2023-03-05T15:12:09.513Z,9.98
2023-03-05T15:14:56.282Z,10.18
2023-03-05T15:17:44.446Z,11.52
2023-03-05T15:20:31.160Z,12.77
2023-03-05T15:23:17.096Z,12.85
2023-03-05T15:26:06.289Z,13.15
2023-03-05T15:28:52.113Z,12.75
2023-03-05T15:31:40.374Z,12.38
2023-03-05T15:34:26.097Z,15.40
2023-03-05T15:37:11.829Z,15.65
2023-03-05T15:39:57.302Z,16.00
2023-03-05T15:42:42.948Z,13.65
2023-03-05T15:45:31.321Z,19.58
2023-03-05T15:48:16.790Z,14.40
2023-03-05T15:51:05.592Z,14.05
2023-03-05T15:53:51.318Z,13.93
2023-03-05T15:56:36.961Z,13.60
2023-03-05T15:59:22.774Z,11.45
2023-03-05T16:02:08.543Z,12.20
2023-03-05T16:04:54.284Z,11.00
2023-03-05T16:07:42.728Z,9.77
2023-03-05T16:10:29.629Z,10.10
2023-03-05T16:13:18.572Z,11.25
2023-03-05T16:16:07.875Z,12.63
2023-03-05T16:18:53.917Z,11.88
2023-03-05T16:21:39.381Z,9.95
2023-03-05T16:24:24.953Z,9.35
2023-03-05T16:27:11.019Z,11.85
2023-03-05T16:29:58.073Z,11.27
2023-03-05T16:32:44.037Z,9.95
2023-03-05T16:35:29.998Z,11.57
2023-03-05T16:38:15.930Z,10.90
2023-03-05T16:41:09.156Z,11.38
2023-03-05T16:43:56.470Z,13.30
2023-03-05T16:46:43.837Z,13.95
2023-03-05T16:49:29.971Z,11.82
2023-03-05T16:52:19.795Z,11.40
2023-03-05T16:55:06.531Z,11.63
2023-03-05T16:57:52.506Z,12.27
2023-03-05T17:00:38.120Z,11.20
2023-03-05T17:03:23.907Z,12.02
2023-03-05T17:06:14.869Z,12.73
2023-03-05T17:09:01.458Z,14.80
2023-03-05T17:11:47.330Z,13.52
2023-03-05T17:14:33.000Z,13.75
2023-03-05T17:17:18.794Z,13.07
2023-03-05T17:20:05.063Z,13.82
2023-03-05T17:22:50.981Z,13.13
2023-03-05T17:25:37.544Z,16.33
2023-03-05T17:28:23.435Z,14.75
2023-03-05T17:31:09.377Z,11.80
2023-03-05T17:33:55.860Z,13.95
2023-03-05T17:36:41.505Z,15.10
2023-03-05T17:39:27.091Z,15.93
2023-03-05T17:42:13.023Z,15.63
2023-03-05T17:44:59.222Z,15.80
2023-03-05T17:47:45.156Z,15.05
2023-03-05T17:50:30.783Z,17.02
2023-03-05T17:53:16.743Z,16.35
2023-03-05T17:56:05.668Z,17.52
2023-03-05T17:58:52.133Z,34.05
2023-03-05T18:01:38.027Z,44.33
2023-03-05T18:04:23.706Z,36.85
2023-03-05T18:07:10.279Z,20.33
2023-03-05T18:09:55.784Z,15.50
2023-03-05T18:12:41.740Z,15.52
2023-03-05T18:15:28.257Z,18.27
2023-03-05T18:18:15.342Z,17.67
2023-03-05T18:21:01.050Z,15.93
2023-03-05T18:23:46.567Z,15.73
2023-03-05T18:26:32.113Z,13.95
2023-03-05T18:29:18.835Z,13.98
2023-03-05T18:32:04.645Z,19.13
2023-03-05T18:34:51.648Z,15.57
2023-03-05T18:37:39.772Z,16.13
2023-03-05T18:40:28.301Z,17.25
2023-03-05T18:43:14.430Z,15.27
2023-03-05T18:46:00.243Z,14.15
2023-03-05T18:48:48.098Z,18.48
2023-03-05T18:51:34.406Z,14.18
2023-03-05T18:54:20.087Z,13.40
2023-03-05T18:57:06.021Z,16.23
2023-03-05T18:59:51.723Z,17.48
2023-03-05T19:02:37.407Z,18.98
2023-03-05T19:05:25.279Z,18.38
2023-03-05T19:08:10.630Z,17.55
2023-03-05T19:10:56.266Z,17.80
2023-03-05T19:13:48.969Z,15.18
2023-03-05T19:16:40.523Z,18.50
2023-03-05T19:19:26.021Z,15.52
2023-03-05T19:22:12.371Z,19.77
2023-03-05T19:24:58.599Z,12.40
2023-03-05T19:27:44.726Z,13.18
2023-03-05T19:30:30.236Z,16.40
2023-03-05T19:33:15.966Z,13.85
2023-03-05T19:36:01.388Z,16.75
2023-03-05T19:38:48.680Z,15.80
2023-03-05T19:41:36.420Z,16.33
2023-03-05T19:44:22.175Z,17.67
2023-03-05T19:47:07.806Z,16.55
2023-03-05T19:49:53.578Z,16.08
2023-03-05T19:52:39.045Z,16.77
2023-03-05T19:55:24.666Z,14.40
2023-03-05T19:58:10.198Z,14.20
2023-03-05T20:00:55.801Z,15.00
2023-03-05T20:03:43.664Z,14.65
2023-03-05T20:06:30.634Z,13.30
2023-03-05T20:09:17.232Z,14.05
2023-03-05T20:12:05.557Z,12.52
2023-03-05T20:14:51.191Z,16.13
2023-03-05T20:17:36.653Z,15.02
2023-03-05T20:20:22.397Z,13.18
2023-03-05T20:23:08.086Z,12.25
2023-03-05T20:25:53.480Z,13.75
2023-03-05T20:28:39.073Z,15.52
2023-03-05T20:31:26.942Z,14.77
2023-03-05T20:34:15.720Z,15.45
2023-03-05T20:37:01.584Z,14.17
2023-03-05T20:39:47.792Z,12.73
2023-03-05T20:42:33.544Z,12.60
2023-03-05T20:45:19.023Z,14.30
2023-03-05T20:48:04.710Z,11.07
2023-03-05T20:50:51.074Z,12.43
2023-03-05T20:53:36.662Z,14.07
2023-03-05T20:56:22.373Z,10.45
2023-03-05T20:59:09.106Z,14.70
2023-03-05T21:01:54.639Z,12.60
2023-03-05T21:04:40.727Z,13.98
2023-03-05T21:07:28.080Z,12.20
2023-03-05T21:10:14.192Z,13.38
2023-03-05T21:13:00.980Z,15.30
2023-03-05T21:15:46.503Z,11.07
2023-03-05T21:18:31.938Z,11.63
2023-03-05T21:21:18.059Z,11.98
2023-03-05T21:24:03.808Z,11.40
2023-03-05T21:26:49.455Z,13.02
2023-03-05T21:29:35.162Z,11.98
2023-03-05T21:32:20.783Z,12.65
2023-03-05T21:35:06.738Z,12.52
2023-03-05T21:37:52.646Z,12.30
2023-03-05T21:40:45.328Z,10.93
2023-03-05T21:43:31.648Z,14.65
2023-03-05T21:46:17.735Z,13.55
2023-03-05T21:49:03.705Z,13.02
2023-03-05T21:52:03.353Z,11.68
2023-03-05T21:54:48.843Z,10.45
2023-03-05T21:57:34.555Z,12.63
2023-03-05T22:00:23.141Z,11.75
2023-03-05T22:03:08.688Z,14.63
2023-03-05T22:05:54.766Z,11.82
2023-03-05T22:08:40.992Z,11.98
2023-03-05T22:11:26.705Z,15.43
2023-03-05T22:14:12.188Z,12.35
2023-03-05T22:17:02.126Z,11.60
2023-03-05T22:22:33.510Z,12.50
2023-03-05T22:25:19.200Z,12.15
2023-03-05T22:28:05.638Z,12.55
2023-03-05T22:30:51.598Z,13.48
2023-03-05T22:33:37.288Z,13.63
2023-03-05T22:36:23.711Z,13.45
2023-03-05T22:39:09.492Z,14.52
2023-03-05T22:41:55.108Z,12.50
2023-03-05T22:44:40.653Z,15.20
2023-03-05T22:47:27.269Z,14.65
2023-03-05T22:50:13.096Z,14.15
2023-03-05T22:52:58.595Z,18.02
2023-03-05T22:55:44.035Z,13.57
2023-03-05T22:58:29.597Z,13.43
2023-03-05T23:01:23.663Z,14.25
2023-03-05T23:04:18.728Z,13.40
2023-03-05T23:07:04.418Z,12.35
2023-03-05T23:09:59.854Z,14.10
2023-03-05T23:12:51.249Z,12.98
2023-03-05T23:15:39.022Z,11.75
2023-03-05T23:18:24.793Z,11.15
2023-03-05T23:21:10.359Z,12.48
2023-03-05T23:23:57.597Z,14.50
2023-03-05T23:26:43.326Z,12.50
2023-03-05T23:29:30.402Z,11.77
2023-03-05T23:32:16.202Z,11.82
2023-03-05T23:35:01.618Z,11.45
2023-03-05T23:37:47.622Z,12.20
2023-03-05T23:40:41.167Z,11.85
2023-03-05T23:43:26.844Z,11.88
2023-03-05T23:46:12.520Z,9.65
2023-03-05T23:48:57.956Z,12.18
2023-03-05T23:51:43.466Z,14.73
2023-03-05T23:54:28.922Z,9.77
2023-03-05T23:57:14.560Z,10.90
2023-03-05T23:59:59.986Z,11.60
